Flight Track Log - Related Links

Times and Time Zones

All times are in EDT time to prevent confusion due to time zone crossing. See the EZY2759 flight status page for this flight to view local times or setup timezone preferences in your user account.

Time Position Orientation Groundspeed Altitude Reporting Facility
EDT Latitude Longitude Course Direction KTS MPH feet Rate Location/Type
Mon 12:55:00 AM 45.0927 7.8131 230° Southwest  Level Estimated
Mon 12:56:00 AM 45.0435 7.7308 230° Southwest  Level Estimated
Mon 12:57:00 AM 44.9942 7.6486 230° Southwest  Level Estimated
Mon 12:58:00 AM 44.9448 7.5666 230° Southwest  Level Estimated
Mon 12:59:00 AM 44.8954 7.4847 230° Southwest  Level Estimated
Mon 01:00:00 AM 44.8459 7.4029 230° Southwest  Level Estimated
Mon 01:01:00 AM 44.7963 7.3213 229° Southwest  Level Estimated
Mon 01:02:00 AM 44.7467 7.2399 229° Southwest  Level Estimated
Mon 01:03:00 AM 44.6970 7.1585 229° Southwest  Level Estimated
Mon 01:04:00 AM 44.6473 7.0773 229° Southwest  Level Estimated
Mon 01:05:00 AM 44.5975 6.9963 229° Southwest  Level Estimated
Mon 01:06:00 AM 44.5477 6.9153 229° Southwest  Level Estimated
Mon 01:07:00 AM 44.4978 6.8345 229° Southwest  Level Estimated
Mon 01:08:00 AM 44.4478 6.7539 229° Southwest  Level Estimated
Mon 01:09:00 AM 44.3978 6.6734 229° Southwest  Level Estimated
Mon 01:10:00 AM 44.3478 6.5930 229° Southwest  Level Estimated
Mon 01:11:00 AM 44.2976 6.5128 229° Southwest  Level Estimated
Mon 01:12:00 AM 44.2475 6.4327 229° Southwest  Level Estimated
Mon 01:13:00 AM 44.1972 6.3528 229° Southwest  Level Estimated
Mon 01:14:00 AM 44.1469 6.2730 229° Southwest  Level Estimated
Mon 01:15:00 AM 44.0966 6.1933 229° Southwest  Level Estimated
Mon 01:16:00 AM 44.0462 6.1137 229° Southwest  Level Estimated
Mon 01:17:00 AM 43.9958 6.0343 229° Southwest  Level Estimated
Mon 01:18:00 AM 43.9393 5.9457 229° Southwest  Level Estimated
Mon 01:19:00 AM 43.8827 5.8572 228° Southwest  Level Estimated
Mon 01:20:00 AM 43.8261 5.7688 228° Southwest  Level Estimated
Mon 01:21:00 AM 43.7694 5.6807 228° Southwest  Level Estimated
Mon 01:22:00 AM 43.7126 5.5927 228° Southwest  Level Estimated
Mon 01:23:00 AM 43.6558 5.5049 228° Southwest  Level Estimated
Mon 01:24:00 AM 43.5989 5.4172 228° Southwest  Level Estimated
Mon 01:25:00 AM 43.5419 5.3298 228° Southwest  Level Estimated
Mon 01:26:00 AM 43.4849 5.2424 228° Southwest  Level Estimated
Mon 01:27:00 AM 43.4278 5.1553 228° Southwest  Level Estimated
Mon 01:28:00 AM 43.3706 5.0683 228° Southwest  Level Estimated
Mon 01:29:00 AM 43.3134 4.9815 228° Southwest  Level Estimated
Mon 01:30:00 AM 43.2561 4.8948 228° Southwest  Level Estimated
Mon 01:31:00 AM 43.1987 4.8083 228° Southwest  Level Estimated
Mon 01:32:00 AM 43.1413 4.7220 228° Southwest  Level Estimated
Mon 01:33:00 AM 43.0838 4.6358 228° Southwest  Level Estimated
Mon 01:34:00 AM 43.0262 4.5498 228° Southwest  Level Estimated
Mon 01:35:00 AM 42.9686 4.4639 227° Southwest  Level Estimated
Mon 01:36:00 AM 42.9109 4.3782 227° Southwest  Level Estimated
Mon 01:37:00 AM 42.8532 4.2927 227° Southwest  Level Estimated
Mon 01:38:00 AM 42.7954 4.2073 227° Southwest  Level Estimated
Mon 01:39:00 AM 42.7375 4.1221 227° Southwest  Level Estimated
Mon 01:40:00 AM 42.6795 4.0371 227° Southwest  Level Estimated
Mon 01:41:00 AM 42.6215 3.9522 227° Southwest  Level Estimated
Mon 01:42:00 AM 42.5635 3.8674 227° Southwest  Level Estimated
Mon 01:43:00 AM 42.5053 3.7828 227° Southwest  Level Estimated
Mon 01:44:00 AM 42.4472 3.6984 227° Southwest  Level Estimated
Mon 01:45:00 AM 42.3881 3.6130 227° Southwest  Level Estimated
Mon 01:46:00 AM 42.3290 3.5278 227° Southwest  Level Estimated
Mon 01:47:00 AM 42.2699 3.4427 227° Southwest  Level Estimated
Mon 01:48:00 AM 42.2107 3.3578 227° Southwest  Level Estimated
Mon 01:49:00 AM 42.1514 3.2731 227° Southwest  Level Estimated
Mon 01:50:00 AM 42.0920 3.1885 227° Southwest  Level Estimated
Mon 01:51:00 AM 42.0326 3.1040 227° Southwest  Level Estimated
Mon 01:52:00 AM 41.9731 3.0198 227° Southwest  Level Estimated
Mon 01:53:00 AM 41.9136 2.9357 226° Southwest  Level Estimated
Mon 01:54:00 AM 41.8540 2.8517 226° Southwest  Level Estimated
Mon 01:55:00 AM 41.7944 2.7679 226° Southwest  Level Estimated
Mon 01:56:00 AM 41.7347 2.6843 226° Southwest  Level Estimated
Mon 01:57:00 AM 41.6749 2.6008 226° Southwest  Level Estimated
Mon 01:58:00 AM 41.6151 2.5174 226° Southwest  Level Estimated
Mon 01:59:00 AM 41.5552 2.4342 226° Southwest  Level Estimated
Mon 02:00:00 AM 41.4952 2.3512 226° Southwest  Level Estimated
Mon 02:01:00 AM 41.4352 2.2683 226° Southwest  Level Estimated
Mon 02:02:00 AM 41.3751 2.1856 226° Southwest  Level Estimated
Mon 02:03:00 AM 41.3150 2.1030 226° Southwest  Level Estimated
Mon 02:04:00 AM 41.2971 2.0785 226° Southwest  Level Estimated
Mon 02:05:00 AM 41.2971 2.0785 124° Southeast  Level Estimated
Mon 02:06:00 AM 41.2971 2.0785 124° Southeast  Level Estimated
Mon 02:07:00 AM 41.2971 2.0785 124° Southeast  Level Estimated
Mon 02:08:00 AM 41.2971 2.0785 124° Southeast  Level Estimated
Mon 02:09:00 AM 41.2971 2.0785 124° Southeast  Level Estimated
Mon 02:10:00 AM 41.2971 2.0785 124° Southeast  Level Estimated
Mon 02:11:00 AM 41.2971 2.0785 124° Southeast  Level Estimated
Mon 02:12:00 AM 41.2971 2.0785 124° Southeast  Level Estimated
Mon 02:13:00 AM 41.2971 2.0785 124° Southeast  Level Estimated

Login

Don't have an account? Register now (free) for customized features, flight alerts, and more!